createdAt,value
2018-11-26T00:00:40.801Z,0
2018-11-26T00:01:42.257Z,0
2018-11-26T00:02:43.438Z,0
2018-11-26T00:03:44.351Z,0
2018-11-26T00:04:45.248Z,0
2018-11-26T00:05:46.145Z,0
2018-11-26T00:06:47.602Z,0
2018-11-26T00:07:48.783Z,0
2018-11-26T00:08:48.963Z,0
2018-11-26T00:09:49.857Z,0
2018-11-26T00:10:51.653Z,0
2018-11-26T00:11:52.388Z,0
2018-11-26T00:12:52.844Z,0
2018-11-26T00:13:54.023Z,0
2018-11-26T00:14:53.646Z,0
2018-11-26T00:15:56.378Z,0
2018-11-26T00:16:56.837Z,0
2018-11-26T00:17:58.567Z,0
2018-11-26T00:18:59.186Z,0
2018-11-26T00:20:00.646Z,0
2018-11-26T00:21:01.457Z,0
2018-11-26T00:22:02.187Z,0
2018-11-26T00:23:02.648Z,0
2018-11-26T00:24:02.825Z,0
2018-11-26T00:25:04.283Z,0
2018-11-26T00:26:05.461Z,0
2018-11-26T00:27:06.085Z,0
2018-11-26T00:28:07.550Z,0
2018-11-26T00:29:08.006Z,0
2018-11-26T00:30:08.624Z,0
2018-11-26T00:31:09.734Z,0
2018-11-26T00:32:11.786Z,0
2018-11-26T00:33:11.686Z,0
2018-11-26T00:34:12.583Z,0
2018-11-26T00:35:14.050Z,0
2018-11-26T00:36:15.227Z,0
2018-11-26T00:37:16.237Z,0
2018-11-26T00:38:16.691Z,0
2018-11-26T00:39:17.590Z,0
2018-11-26T00:40:18.493Z,0
2018-11-26T00:41:19.846Z,0
2018-11-26T00:42:19.743Z,0
2018-11-26T00:43:21.477Z,0
2018-11-26T00:44:22.486Z,0
2018-11-26T00:45:22.398Z,0
2018-11-26T00:46:23.855Z,0
2018-11-26T00:47:25.308Z,0
2018-11-26T00:48:25.765Z,0
2018-11-26T00:49:27.229Z,0
2018-11-26T00:50:28.405Z,0
2018-11-26T00:51:29.937Z,0
2018-11-26T00:52:31.944Z,0
2018-11-26T00:53:32.317Z,0
2018-11-26T00:54:33.220Z,0
2018-11-26T00:55:34.392Z,0
2018-11-26T00:56:36.141Z,0
2018-11-26T00:57:37.163Z,0
2018-11-26T00:58:38.173Z,0
2018-11-26T00:59:37.798Z,0
2018-11-26T01:00:38.697Z,0
2018-11-26T01:01:39.669Z,0
2018-11-26T01:02:40.319Z,0
2018-11-26T01:03:40.946Z,0
2018-11-26T01:04:41.844Z,0
2018-11-26T01:05:43.037Z,0
2018-11-26T01:06:43.428Z,0
2018-11-26T01:07:45.328Z,0
2018-11-26T01:08:45.951Z,0
2018-11-26T01:09:46.562Z,0
2018-11-26T01:10:47.463Z,0
2018-11-26T01:11:47.437Z,0
2018-11-26T01:12:48.778Z,0
2018-11-26T01:13:49.399Z,0
2018-11-26T01:14:50.299Z,0
2018-11-26T01:15:51.196Z,0
2018-11-26T01:16:52.093Z,0
2018-11-26T01:17:53.158Z,0
2018-11-26T01:18:54.786Z,0
2018-11-26T01:19:55.963Z,0
2018-11-26T01:20:57.692Z,0
2018-11-26T01:21:57.667Z,0
2018-11-26T01:22:58.561Z,0
2018-11-26T01:23:59.182Z,0
2018-11-26T01:25:00.921Z,0
2018-11-26T01:26:02.376Z,0
2018-11-26T01:27:03.558Z,0
2018-11-26T01:28:05.017Z,0
2018-11-26T01:29:05.916Z,0
2018-11-26T01:30:06.815Z,0
2018-11-26T01:31:08.269Z,0
2018-11-26T01:32:09.779Z,0
2018-11-26T01:33:10.237Z,0
2018-11-26T01:34:10.869Z,0
2018-11-26T01:35:12.604Z,0
2018-11-26T01:36:13.342Z,0
2018-11-26T01:37:14.524Z,0
2018-11-26T01:38:15.713Z,0
2018-11-26T01:39:16.455Z,0
2018-11-26T01:40:17.646Z,0
2018-11-26T01:41:19.382Z,0
2018-11-26T01:42:19.641Z,0
2018-11-26T01:43:19.988Z,0
2018-11-26T01:44:20.896Z,0
2018-11-26T01:45:22.095Z,0
2018-11-26T01:46:23.557Z,0
2018-11-26T01:47:23.182Z,0
2018-11-26T01:48:24.368Z,0
2018-11-26T01:49:24.274Z,0
2018-11-26T01:50:25.452Z,0
2018-11-26T01:51:26.364Z,0
2018-11-26T01:52:27.623Z,0
2018-11-26T01:53:28.524Z,0
2018-11-26T01:54:29.150Z,0
2018-11-26T01:55:30.327Z,0
2018-11-26T01:56:31.518Z,0
2018-11-26T01:57:32.457Z,0
2018-11-26T01:58:33.085Z,0
2018-11-26T01:59:34.262Z,0
2018-11-26T02:00:35.721Z,0
2018-11-26T02:01:37.179Z,0
2018-11-26T02:02:38.270Z,0
2018-11-26T02:03:38.728Z,0
2018-11-26T02:04:39.471Z,0
2018-11-26T02:05:40.939Z,0
2018-11-26T02:06:42.125Z,0
2018-11-26T02:07:43.306Z,0
2018-11-26T02:08:43.931Z,0
2018-11-26T02:09:45.669Z,0
2018-11-26T02:10:46.856Z,0
2018-11-26T02:11:47.589Z,0
2018-11-26T02:12:48.398Z,0
2018-11-26T02:13:49.861Z,0
2018-11-26T02:14:50.602Z,0
2018-11-26T02:15:51.345Z,0
2018-11-26T02:16:52.257Z,0
2018-11-26T02:17:53.992Z,0
2018-11-26T02:18:55.451Z,0
2018-11-26T02:19:55.356Z,0
2018-11-26T02:20:56.532Z,0
2018-11-26T02:21:57.433Z,0
2018-11-26T02:22:57.741Z,0
2018-11-26T02:23:58.646Z,0
2018-11-26T02:24:59.277Z,0
2018-11-26T02:26:01.293Z,0
2018-11-26T02:27:02.040Z,0
2018-11-26T02:28:03.219Z,0
2018-11-26T02:29:03.845Z,0
2018-11-26T02:30:05.637Z,0
2018-11-26T02:31:06.400Z,0
2018-11-26T02:32:07.027Z,0
2018-11-26T02:33:08.858Z,0
2018-11-26T02:34:09.596Z,0
2018-11-26T02:35:11.097Z,0
2018-11-26T02:36:12.126Z,0
2018-11-26T02:37:12.335Z,0
2018-11-26T02:38:13.524Z,0
2018-11-26T02:39:13.992Z,0
2018-11-26T02:40:14.901Z,0
2018-11-26T02:41:16.952Z,0
2018-11-26T02:42:17.579Z,0
2018-11-26T02:43:19.383Z,0
2018-11-26T02:44:20.287Z,0
2018-11-26T02:45:22.303Z,0
2018-11-26T02:46:22.493Z,0
2018-11-26T02:47:23.402Z,0
2018-11-26T02:48:24.583Z,0
2018-11-26T02:49:25.491Z,0
2018-11-26T02:50:26.531Z,0
2018-11-26T02:51:27.293Z,0
2018-11-26T02:52:28.025Z,0
2018-11-26T02:53:27.991Z,0
2018-11-26T02:54:29.730Z,0
2018-11-26T02:55:30.359Z,0
2018-11-26T02:56:30.987Z,0
2018-11-26T02:57:32.166Z,0
2018-11-26T02:58:33.072Z,0
2018-11-26T02:59:34.260Z,0
2018-11-26T03:00:35.439Z,0
2018-11-26T03:01:36.363Z,0
2018-11-26T03:02:38.382Z,0
2018-11-26T03:03:38.371Z,0
2018-11-26T03:04:40.103Z,0
2018-11-26T03:05:40.846Z,0
2018-11-26T03:06:42.601Z,0
2018-11-26T03:07:42.787Z,0
2018-11-26T03:08:44.529Z,0
2018-11-26T03:09:44.992Z,0
2018-11-26T03:10:46.777Z,0
2018-11-26T03:11:47.963Z,0
2018-11-26T03:12:49.423Z,0
2018-11-26T03:13:50.529Z,0
2018-11-26T03:14:51.032Z,0
2018-11-26T03:15:52.516Z,0
2018-11-26T03:16:53.253Z,0
2018-11-26T03:17:54.717Z,0
2018-11-26T03:18:54.906Z,0
2018-11-26T03:19:56.086Z,0
2018-11-26T03:20:56.830Z,0
2018-11-26T03:21:57.294Z,0
2018-11-26T03:22:58.197Z,0
2018-11-26T03:23:59.056Z,0
2018-11-26T03:24:59.402Z,0
2018-11-26T03:26:01.586Z,0
2018-11-26T03:27:02.048Z,0
2018-11-26T03:28:03.817Z,0
2018-11-26T03:29:05.005Z,0
2018-11-26T03:30:06.747Z,0
2018-11-26T03:31:07.585Z,0
2018-11-26T03:32:08.402Z,0
2018-11-26T03:33:09.146Z,0
2018-11-26T03:34:10.796Z,0
2018-11-26T03:35:11.018Z,0
2018-11-26T03:36:12.753Z,0
2018-11-26T03:37:14.487Z,0
2018-11-26T03:38:14.947Z,0
2018-11-26T03:39:16.134Z,0
2018-11-26T03:40:17.594Z,0
2018-11-26T03:41:18.069Z,0
2018-11-26T03:42:19.557Z,0
2018-11-26T03:43:20.024Z,0
2018-11-26T03:44:21.558Z,0
2018-11-26T03:45:23.316Z,0
2018-11-26T03:46:23.773Z,0
2018-11-26T03:47:23.968Z,0
2018-11-26T03:48:25.149Z,0
2018-11-26T03:49:26.940Z,0
2018-11-26T03:50:27.687Z,0
2018-11-26T03:51:28.148Z,0
2018-11-26T03:52:29.886Z,0
2018-11-26T03:53:30.632Z,0
2018-11-26T03:54:31.185Z,0
2018-11-26T03:55:31.882Z,0
2018-11-26T03:56:33.640Z,0
2018-11-26T03:57:33.822Z,0
2018-11-26T03:58:34.567Z,0
2018-11-26T03:59:36.026Z,0
2018-11-26T04:00:36.759Z,0
2018-11-26T04:01:38.216Z,0
2018-11-26T04:02:38.400Z,0
2018-11-26T04:03:39.639Z,0
2018-11-26T04:04:41.177Z,0
2018-11-26T04:05:42.645Z,0
2018-11-26T04:06:43.826Z,0
2018-11-26T04:07:44.285Z,0
2018-11-26T04:08:44.916Z,0
2018-11-26T04:09:46.402Z,0
2018-11-26T04:10:47.874Z,0
2018-11-26T04:11:48.605Z,0
2018-11-26T04:12:49.619Z,0
2018-11-26T04:13:50.358Z,0
2018-11-26T04:14:50.876Z,0
2018-11-26T04:15:52.061Z,0
2018-11-26T04:16:53.246Z,0
2018-11-26T04:17:54.728Z,0
2018-11-26T04:18:55.741Z,0
2018-11-26T04:19:56.475Z,0
2018-11-26T04:20:56.941Z,0
2018-11-26T04:21:58.122Z,0
2018-11-26T04:22:59.581Z,0
2018-11-26T04:24:00.330Z,0
2018-11-26T04:25:01.295Z,0
2018-11-26T04:26:03.046Z,0
2018-11-26T04:27:03.503Z,0
2018-11-26T04:28:04.683Z,0
2018-11-26T04:29:06.417Z,0
2018-11-26T04:30:07.606Z,0
2018-11-26T04:31:08.361Z,0
2018-11-26T04:32:09.374Z,0
2018-11-26T04:33:10.162Z,0
2018-11-26T04:34:11.182Z,0
2018-11-26T04:35:11.844Z,0
2018-11-26T04:36:12.594Z,0
2018-11-26T04:37:25.732Z,0
2018-11-26T04:38:26.546Z,0
2018-11-26T04:39:26.734Z,0
2018-11-26T04:40:28.190Z,0
2018-11-26T04:41:29.662Z,0
2018-11-26T04:42:31.397Z,0
2018-11-26T04:43:31.481Z,0
2018-11-26T04:44:33.403Z,0
2018-11-26T04:45:33.862Z,0
2018-11-26T04:46:34.765Z,0
2018-11-26T04:47:35.393Z,0
2018-11-26T04:48:36.209Z,0
2018-11-26T04:49:36.903Z,0
2018-11-26T04:50:39.114Z,0
2018-11-26T04:51:40.298Z,0
2018-11-26T04:52:40.973Z,0
2018-11-26T04:53:43.164Z,0
2018-11-26T04:54:44.179Z,0
2018-11-26T04:55:44.355Z,0
2018-11-26T04:56:45.540Z,0
2018-11-26T04:57:45.789Z,0
2018-11-26T04:58:47.329Z,0
2018-11-26T04:59:48.515Z,0
2018-11-26T05:00:49.716Z,0
2018-11-26T05:01:51.185Z,0
2018-11-26T05:02:52.925Z,0
2018-11-26T05:03:53.408Z,0
2018-11-26T05:04:54.869Z,0
2018-11-26T05:05:56.051Z,0
2018-11-26T05:06:57.513Z,0
2018-11-26T05:07:59.250Z,0
2018-11-26T05:08:59.828Z,0
2018-11-26T05:10:01.582Z,0
2018-11-26T05:11:02.336Z,0
2018-11-26T05:12:03.798Z,0
2018-11-26T05:13:04.019Z,0
2018-11-26T05:14:05.478Z,0
2018-11-26T05:15:06.658Z,0
2018-11-26T05:16:06.835Z,0
2018-11-26T05:17:07.754Z,0
2018-11-26T05:18:09.220Z,0
2018-11-26T05:19:10.304Z,0
2018-11-26T05:20:12.078Z,0
2018-11-26T05:21:13.281Z,0
2018-11-26T05:22:15.031Z,0
2018-11-26T05:23:15.219Z,0
2018-11-26T05:24:16.121Z,0
2018-11-26T05:25:17.589Z,0
2018-11-26T05:26:18.508Z,0
2018-11-26T05:27:19.982Z,0
2018-11-26T05:28:20.743Z,0
2018-11-26T05:29:21.867Z,0
2018-11-26T05:30:22.346Z,0
2018-11-26T05:31:23.565Z,0
2018-11-26T05:32:24.754Z,0
2018-11-26T05:33:26.210Z,0
2018-11-26T05:34:26.837Z,0
2018-11-26T05:35:28.582Z,0
2018-11-26T05:36:29.323Z,0
2018-11-26T05:37:29.778Z,0
2018-11-26T05:38:30.679Z,0
2018-11-26T05:39:30.940Z,0
2018-11-26T05:40:32.399Z,0
2018-11-26T05:41:33.862Z,0
2018-11-26T05:42:35.042Z,0
2018-11-26T05:43:36.501Z,0
2018-11-26T05:44:37.406Z,0
2018-11-26T05:45:38.593Z,0
2018-11-26T05:46:39.500Z,0
2018-11-26T05:47:40.684Z,0
2018-11-26T05:48:42.141Z,0
2018-11-26T05:49:42.935Z,0
2018-11-26T05:50:44.390Z,0
2018-11-26T05:51:44.849Z,0
2018-11-26T05:52:45.368Z,0
2018-11-26T05:53:46.550Z,0
2018-11-26T05:54:48.015Z,0
2018-11-26T05:55:49.195Z,0
2018-11-26T05:56:50.214Z,0
2018-11-26T05:57:50.681Z,0
2018-11-26T05:58:51.146Z,0
2018-11-26T05:59:51.950Z,0
2018-11-26T06:00:52.125Z,0
2018-11-26T06:01:53.035Z,0
2018-11-26T06:02:54.492Z,0
2018-11-26T06:03:55.673Z,0
2018-11-26T06:04:56.855Z,0
2018-11-26T06:05:58.038Z,0
2018-11-26T06:06:59.778Z,0
2018-11-26T06:07:59.725Z,0
2018-11-26T06:09:00.906Z,0
2018-11-26T06:10:01.992Z,0
2018-11-26T06:11:02.747Z,0
2018-11-26T06:12:03.654Z,0
2018-11-26T06:13:05.616Z,0
2018-11-26T06:14:05.351Z,4
2018-11-26T06:15:05.254Z,4
2018-11-26T06:16:06.996Z,4
2018-11-26T06:17:07.742Z,4
2018-11-26T06:18:07.689Z,0
2018-11-26T06:19:08.884Z,4
2018-11-26T06:20:10.956Z,4
2018-11-26T06:21:11.423Z,4
2018-11-26T06:22:12.328Z,4
2018-11-26T06:23:13.515Z,4
2018-11-26T06:24:14.418Z,4
2018-11-26T06:25:15.619Z,8
2018-11-26T06:26:16.824Z,4
2018-11-26T06:27:18.286Z,8
2018-11-26T06:28:18.657Z,8
2018-11-26T06:29:19.284Z,8
2018-11-26T06:30:20.261Z,12
2018-11-26T06:31:22.041Z,8
2018-11-26T06:32:23.944Z,12
2018-11-26T06:33:23.848Z,12
2018-11-26T06:34:25.306Z,12
2018-11-26T06:35:26.778Z,16
2018-11-26T06:36:27.693Z,16
2018-11-26T06:37:28.876Z,16
2018-11-26T06:38:30.069Z,16
2018-11-26T06:39:30.298Z,20
2018-11-26T06:40:31.556Z,20
2018-11-26T06:41:32.741Z,20
2018-11-26T06:42:33.922Z,24
2018-11-26T06:43:35.113Z,24
2018-11-26T06:44:36.014Z,28
2018-11-26T06:45:37.753Z,32
2018-11-26T06:46:38.659Z,32
2018-11-26T06:47:40.393Z,32
2018-11-26T06:48:40.861Z,32
2018-11-26T06:49:41.592Z,36
2018-11-26T06:50:42.843Z,40
2018-11-26T06:51:43.582Z,40
2018-11-26T06:52:44.044Z,44
2018-11-26T06:53:45.778Z,48
2018-11-26T06:54:46.011Z,48
2018-11-26T06:55:47.471Z,48
2018-11-26T06:56:47.653Z,52
2018-11-26T06:57:48.842Z,56
2018-11-26T06:58:50.585Z,60
2018-11-26T06:59:51.940Z,64
2018-11-26T07:00:52.924Z,68
2018-11-26T07:01:54.489Z,76
2018-11-26T07:02:54.271Z,80
2018-11-26T07:03:54.972Z,84
2018-11-26T07:04:56.173Z,88
2018-11-26T07:05:56.371Z,92
2018-11-26T07:06:57.781Z,92
2018-11-26T07:07:58.759Z,96
2018-11-26T07:08:59.230Z,96
2018-11-26T07:10:00.792Z,100
2018-11-26T07:11:02.042Z,104
2018-11-26T07:12:03.344Z,108
2018-11-26T07:13:05.106Z,112
2018-11-26T07:14:06.058Z,120
2018-11-26T07:15:07.444Z,124
2018-11-26T07:16:07.703Z,128
2018-11-26T07:17:09.161Z,136
2018-11-26T07:18:10.702Z,144
2018-11-26T07:19:11.306Z,148
2018-11-26T07:20:13.487Z,148
2018-11-26T07:21:14.117Z,156
2018-11-26T07:22:15.863Z,160
2018-11-26T07:23:15.883Z,164
2018-11-26T07:24:17.659Z,168
2018-11-26T07:25:18.768Z,180
2018-11-26T07:26:19.969Z,188
2018-11-26T07:27:20.830Z,196
2018-11-26T07:28:20.193Z,200
2018-11-26T07:29:27.125Z,200
2018-11-26T07:29:33.335Z,204
2018-11-26T07:30:34.743Z,200
2018-11-26T07:31:35.389Z,196
2018-11-26T07:32:37.006Z,196
2018-11-26T07:33:38.255Z,200
2018-11-26T07:34:39.205Z,204
2018-11-26T07:35:40.988Z,216
2018-11-26T07:36:41.810Z,228
2018-11-26T07:37:42.533Z,244
2018-11-26T07:38:43.613Z,260
2018-11-26T07:39:45.192Z,272
2018-11-26T07:40:45.299Z,284
2018-11-26T07:41:47.190Z,288
2018-11-26T07:42:48.103Z,296
2018-11-26T07:43:49.565Z,292
2018-11-26T07:44:50.633Z,296
2018-11-26T07:45:51.253Z,296
2018-11-26T07:46:52.717Z,304
2018-11-26T07:47:53.626Z,312
2018-11-26T07:48:56.776Z,308
2018-11-26T07:49:56.846Z,312
2018-11-26T07:50:57.186Z,312
2018-11-26T07:51:58.748Z,312
2018-11-26T07:52:59.139Z,316
2018-11-26T07:54:00.226Z,324
2018-11-26T07:55:01.696Z,332
2018-11-26T07:56:03.436Z,340
2018-11-26T07:57:04.181Z,344
2018-11-26T07:58:04.364Z,352
2018-11-26T07:59:06.110Z,360
2018-11-26T08:00:06.575Z,364
2018-11-26T08:01:08.441Z,376
2018-11-26T08:02:11.771Z,388
2018-11-26T08:02:23.016Z,392
2018-11-26T08:03:22.599Z,404
2018-11-26T08:04:22.833Z,412
2018-11-26T08:05:24.532Z,416
2018-11-26T08:06:25.335Z,424
2018-11-26T08:07:26.520Z,436
2018-11-26T08:08:27.705Z,460
2018-11-26T08:09:28.100Z,500
2018-11-26T08:10:30.016Z,532
2018-11-26T08:11:30.129Z,544
2018-11-26T08:12:30.967Z,548
2018-11-26T08:13:31.881Z,544
2018-11-26T08:14:34.772Z,528
2018-11-26T08:15:33.881Z,512
2018-11-26T08:16:36.470Z,500
2018-11-26T08:17:36.472Z,492
2018-11-26T08:18:37.887Z,496
2018-11-26T08:19:39.075Z,508
2018-11-26T08:20:44.384Z,528
2018-11-26T08:20:55.823Z,536
2018-11-26T08:21:04.691Z,536
2018-11-26T08:22:04.427Z,556
2018-11-26T08:23:05.673Z,572
2018-11-26T08:24:06.308Z,596
2018-11-26T08:25:07.496Z,628
2018-11-26T08:26:08.515Z,668
2018-11-26T08:27:09.257Z,716
2018-11-26T08:28:09.998Z,748
2018-11-26T08:29:10.909Z,772
2018-11-26T08:30:11.536Z,784
2018-11-26T08:31:13.400Z,772
2018-11-26T08:32:15.408Z,764
2018-11-26T08:33:15.651Z,760
2018-11-26T08:34:16.784Z,748
2018-11-26T08:35:17.844Z,744
2018-11-26T08:36:19.655Z,728
2018-11-26T08:37:20.846Z,708
2018-11-26T08:38:21.716Z,696
2018-11-26T08:39:22.612Z,688
2018-11-26T08:40:24.249Z,692
2018-11-26T08:41:23.767Z,696
2018-11-26T08:42:25.024Z,696
2018-11-26T08:43:25.572Z,688
2018-11-26T08:44:25.950Z,672
2018-11-26T08:45:27.473Z,652
2018-11-26T08:46:29.227Z,644
2018-11-26T08:47:29.044Z,632
2018-11-26T08:48:31.271Z,616
2018-11-26T08:49:31.924Z,608
2018-11-26T08:50:33.716Z,600
2018-11-26T08:51:33.676Z,596
2018-11-26T08:52:35.232Z,576
2018-11-26T08:53:36.694Z,564
2018-11-26T08:54:36.604Z,552
2018-11-26T08:55:39.405Z,536
2018-11-26T08:56:40.237Z,520
2018-11-26T08:57:41.419Z,512
2018-11-26T08:58:42.600Z,504
2018-11-26T08:59:44.385Z,500
2018-11-26T09:00:45.125Z,504
2018-11-26T09:01:46.605Z,516
2018-11-26T09:02:47.670Z,540
2018-11-26T09:03:48.711Z,564
2018-11-26T09:04:49.156Z,584
2018-11-26T09:05:50.540Z,608
2018-11-26T09:06:51.038Z,648
2018-11-26T09:07:51.592Z,684
2018-11-26T09:08:53.381Z,716
2018-11-26T09:09:54.059Z,740
2018-11-26T09:10:55.698Z,744
2018-11-26T09:11:56.068Z,764
2018-11-26T09:12:56.885Z,792
2018-11-26T09:13:57.678Z,820
2018-11-26T09:14:59.537Z,852
2018-11-26T09:15:59.936Z,880
2018-11-26T09:17:01.712Z,916
2018-11-26T09:18:02.872Z,940
2018-11-26T09:19:03.130Z,980
2018-11-26T09:20:04.335Z,1012
2018-11-26T09:21:05.250Z,1044
2018-11-26T09:22:07.249Z,1072
2018-11-26T09:23:07.934Z,1076
2018-11-26T09:24:09.403Z,1084
2018-11-26T09:25:10.915Z,1080
2018-11-26T09:26:12.201Z,1072
2018-11-26T09:27:13.959Z,1056
2018-11-26T09:28:14.437Z,1032
2018-11-26T09:29:15.741Z,1008
2018-11-26T09:30:16.928Z,996
2018-11-26T09:31:19.934Z,988
2018-11-26T09:32:20.227Z,976
2018-11-26T09:33:21.173Z,964
2018-11-26T09:34:22.770Z,960
2018-11-26T09:35:24.124Z,968
2018-11-26T09:36:25.362Z,972
2018-11-26T09:37:25.727Z,972
2018-11-26T09:38:26.372Z,968
2018-11-26T09:39:27.898Z,960
2018-11-26T09:40:28.224Z,960
2018-11-26T09:41:28.782Z,968
2018-11-26T09:42:30.194Z,976
2018-11-26T09:43:30.566Z,976
2018-11-26T09:44:33.219Z,972
2018-11-26T09:45:33.500Z,956
2018-11-26T09:45:44.816Z,952
2018-11-26T09:46:45.546Z,924
2018-11-26T09:47:45.714Z,896
2018-11-26T09:48:46.991Z,872
2018-11-26T09:49:48.148Z,856
2018-11-26T09:50:47.802Z,840
2018-11-26T09:51:49.255Z,828
2018-11-26T09:52:50.853Z,812
2018-11-26T09:53:52.871Z,800
2018-11-26T09:54:53.808Z,800
2018-11-26T09:55:54.664Z,800
2018-11-26T09:56:55.419Z,804
2018-11-26T09:57:56.070Z,804
2018-11-26T09:58:57.544Z,804
2018-11-26T09:59:57.891Z,796
2018-11-26T10:00:59.522Z,792
2018-11-26T10:02:01.082Z,784
2018-11-26T10:03:02.313Z,772
2018-11-26T10:04:03.070Z,772
2018-11-26T10:05:04.829Z,764
2018-11-26T10:06:06.010Z,756
2018-11-26T10:07:07.382Z,760
2018-11-26T10:08:07.826Z,764
2018-11-26T10:09:09.395Z,768
2018-11-26T10:10:09.479Z,764
2018-11-26T10:11:11.461Z,752
2018-11-26T10:12:13.302Z,732
2018-11-26T10:13:14.164Z,716
2018-11-26T10:14:14.566Z,700
2018-11-26T10:15:15.225Z,700
2018-11-26T10:16:15.816Z,704
2018-11-26T10:17:17.316Z,700
2018-11-26T10:18:18.842Z,700
2018-11-26T10:19:20.145Z,700
2018-11-26T10:20:21.704Z,708
2018-11-26T10:21:23.283Z,736
2018-11-26T10:22:23.755Z,788
2018-11-26T10:23:23.812Z,832
2018-11-26T10:24:24.587Z,872
2018-11-26T10:25:26.162Z,888
2018-11-26T10:26:28.172Z,892
2018-11-26T10:27:28.695Z,892
2018-11-26T10:28:29.943Z,880
2018-11-26T10:29:30.115Z,852
2018-11-26T10:30:30.563Z,824
2018-11-26T10:31:32.101Z,804
2018-11-26T10:32:32.502Z,784
2018-11-26T10:33:33.017Z,772
2018-11-26T10:34:35.407Z,772
2018-11-26T10:35:35.231Z,776
2018-11-26T10:36:36.885Z,796
2018-11-26T10:37:36.884Z,828
2018-11-26T10:38:37.362Z,868
2018-11-26T10:39:38.362Z,924
2018-11-26T10:40:39.637Z,984
2018-11-26T10:41:39.870Z,1040
2018-11-26T10:42:40.917Z,1096
2018-11-26T10:43:42.812Z,1156
2018-11-26T10:44:43.055Z,1204
2018-11-26T10:45:45.806Z,1276
2018-11-26T10:46:45.338Z,1360
2018-11-26T10:47:46.806Z,1436
2018-11-26T10:48:53.455Z,1496
2018-11-26T10:49:03.149Z,1508
2018-11-26T10:49:15.981Z,1512
2018-11-26T10:49:26.764Z,1516
2018-11-26T10:49:36.929Z,1524
2018-11-26T10:50:38.619Z,1532
2018-11-26T10:51:37.156Z,1504
2018-11-26T10:52:39.316Z,1464
2018-11-26T10:53:41.155Z,1424
2018-11-26T10:54:40.936Z,1396
2018-11-26T10:55:42.069Z,1392
2018-11-26T10:56:42.264Z,1400
2018-11-26T10:57:44.010Z,1420
2018-11-26T10:58:45.409Z,1464
2018-11-26T10:59:45.842Z,1512
2018-11-26T11:00:46.950Z,1556
2018-11-26T11:01:49.273Z,1580
2018-11-26T11:02:50.086Z,1584
2018-11-26T11:03:51.821Z,1584
2018-11-26T11:04:54.573Z,1556
2018-11-26T11:05:06.102Z,1540
2018-11-26T11:05:17.855Z,1536
2018-11-26T11:06:18.158Z,1460
2018-11-26T11:07:20.024Z,1364
2018-11-26T11:08:21.468Z,1260
2018-11-26T11:08:32.785Z,1240
2018-11-26T11:09:32.961Z,1144
2018-11-26T11:10:33.786Z,1076
2018-11-26T11:11:36.654Z,1024
2018-11-26T11:12:39.555Z,992
2018-11-26T11:12:50.568Z,988
2018-11-26T11:13:49.440Z,960
2018-11-26T11:14:50.384Z,948
2018-11-26T11:15:51.908Z,956
2018-11-26T11:16:52.521Z,976
2018-11-26T11:17:53.796Z,1004
2018-11-26T11:18:55.271Z,1032
2018-11-26T11:19:56.013Z,1060
2018-11-26T11:20:56.832Z,1084
2018-11-26T11:21:57.818Z,1096
2018-11-26T11:22:59.028Z,1092
2018-11-26T11:23:59.360Z,1076
2018-11-26T11:24:59.387Z,1060
2018-11-26T11:26:02.061Z,1040
2018-11-26T11:27:03.224Z,1024
2018-11-26T11:28:02.382Z,1024
2018-11-26T11:29:03.548Z,1020
2018-11-26T11:30:04.626Z,1016
2018-11-26T11:31:05.312Z,992
2018-11-26T11:32:06.818Z,964
2018-11-26T11:34:08.186Z,920
2018-11-26T11:35:09.412Z,916
2018-11-26T11:36:10.439Z,916
2018-11-26T11:37:13.175Z,932
2018-11-26T11:37:25.992Z,936
2018-11-26T11:38:23.649Z,944
2018-11-26T11:39:25.369Z,952
2018-11-26T11:40:27.701Z,956
2018-11-26T11:41:27.432Z,952
2018-11-26T11:42:28.479Z,932
2018-11-26T11:43:28.980Z,912
2018-11-26T11:44:30.190Z,876
2018-11-26T11:45:31.164Z,820
2018-11-26T11:46:32.936Z,772
2018-11-26T11:47:33.221Z,756
2018-11-26T11:48:33.621Z,768
2018-11-26T11:49:35.087Z,776
2018-11-26T11:50:36.073Z,788
2018-11-26T11:51:37.023Z,812
2018-11-26T11:52:37.898Z,856
2018-11-26T11:53:38.891Z,904
2018-11-26T11:54:41.218Z,952
2018-11-26T11:55:40.543Z,996
2018-11-26T11:56:42.238Z,1028
2018-11-26T11:57:43.086Z,1056
2018-11-26T11:58:44.560Z,1072
2018-11-26T11:59:44.482Z,1092
2018-11-26T12:00:45.646Z,1100
2018-11-26T12:01:46.171Z,1104
2018-11-26T12:02:47.978Z,1112
2018-11-26T12:03:48.904Z,1116
2018-11-26T12:04:51.229Z,1124
2018-11-26T12:05:51.120Z,1132
2018-11-26T12:06:52.674Z,1132
2018-11-26T12:07:53.833Z,1112
2018-11-26T12:08:54.403Z,1112
2018-11-26T12:09:54.821Z,1124
2018-11-26T12:10:57.886Z,1148
2018-11-26T12:11:57.967Z,1196
2018-11-26T12:12:59.123Z,1228
2018-11-26T12:14:00.276Z,1248
2018-11-26T12:15:01.779Z,1260
2018-11-26T12:16:01.575Z,1276
2018-11-26T12:17:03.375Z,1308
2018-11-26T12:18:04.225Z,1344
2018-11-26T12:19:05.136Z,1368
2018-11-26T12:20:05.705Z,1388
2018-11-26T12:21:06.953Z,1424
2018-11-26T12:22:09.354Z,1468
2018-11-26T12:23:20.873Z,1496
2018-11-26T12:24:21.135Z,1508
2018-11-26T12:25:22.521Z,1528
2018-11-26T12:26:23.442Z,1568
2018-11-26T12:27:25.987Z,1608
2018-11-26T12:28:25.910Z,1620
2018-11-26T12:29:27.983Z,1652
2018-11-26T12:30:29.129Z,1704
2018-11-26T12:31:29.190Z,1772
2018-11-26T12:32:30.049Z,1848
2018-11-26T12:33:31.404Z,1932
2018-11-26T12:34:32.227Z,2024
2018-11-26T12:35:33.199Z,2100
2018-11-26T12:36:33.786Z,2168
2018-11-26T12:37:34.851Z,2204
2018-11-26T12:38:37.712Z,2192
2018-11-26T12:39:37.623Z,2144
2018-11-26T12:40:38.888Z,2092
2018-11-26T12:41:39.225Z,2016
2018-11-26T12:42:40.815Z,1932
2018-11-26T12:43:42.062Z,1848
2018-11-26T12:44:42.146Z,1780
2018-11-26T12:45:41.673Z,1712
2018-11-26T12:46:42.915Z,1672
2018-11-26T12:47:44.440Z,1648
2018-11-26T12:48:45.232Z,1640
2018-11-26T12:49:46.085Z,1632
2018-11-26T12:50:47.169Z,1632
2018-11-26T12:51:47.701Z,1672
2018-11-26T12:52:48.223Z,1764
2018-11-26T12:53:48.740Z,1816
2018-11-26T12:54:49.791Z,1824
2018-11-26T12:55:50.403Z,1796
2018-11-26T12:56:50.923Z,1768
2018-11-26T12:57:51.359Z,1744
2018-11-26T12:58:51.924Z,1728
2018-11-26T12:59:52.456Z,1692
2018-11-26T13:00:53.528Z,1668
2018-11-26T13:01:55.207Z,1672
2018-11-26T13:02:56.069Z,1628
2018-11-26T13:03:58.091Z,1568
2018-11-26T13:04:58.614Z,1504
2018-11-26T13:05:59.626Z,1464
2018-11-26T13:07:00.491Z,1444
2018-11-26T13:08:01.084Z,1472
2018-11-26T13:09:01.307Z,1516
2018-11-26T13:10:04.363Z,1512
2018-11-26T13:11:04.243Z,1508
2018-11-26T13:12:04.636Z,1516
2018-11-26T13:13:06.346Z,1544
2018-11-26T13:14:06.867Z,1572
2018-11-26T13:15:07.350Z,1588
2018-11-26T13:16:10.762Z,1584
2018-11-26T13:17:11.870Z,1564
2018-11-26T13:18:14.411Z,1532
2018-11-26T13:18:24.431Z,1528
2018-11-26T13:19:23.822Z,1476
2018-11-26T13:20:25.927Z,1432
2018-11-26T13:21:26.874Z,1420
2018-11-26T13:22:27.809Z,1416
2018-11-26T13:23:28.169Z,1436
2018-11-26T13:24:29.056Z,1468
2018-11-26T13:25:29.582Z,1484
2018-11-26T13:26:30.830Z,1456
2018-11-26T13:27:31.660Z,1424
2018-11-26T13:28:32.733Z,1388
2018-11-26T13:29:34.111Z,1380
2018-11-26T13:30:35.468Z,1376
2018-11-26T13:31:36.285Z,1320
2018-11-26T13:32:36.545Z,1268
2018-11-26T13:33:38.260Z,1280
2018-11-26T13:34:41.077Z,1324
2018-11-26T13:35:40.583Z,1388
2018-11-26T13:36:41.470Z,1408
2018-11-26T13:37:42.678Z,1404
2018-11-26T13:38:43.173Z,1432
2018-11-26T13:39:43.461Z,1476
2018-11-26T13:40:44.884Z,1476
2018-11-26T13:41:46.224Z,1512
2018-11-26T13:42:47.147Z,1492
2018-11-26T13:43:48.907Z,1488
2018-11-26T13:44:48.675Z,1532
2018-11-26T13:45:50.378Z,1572
2018-11-26T13:46:50.092Z,1564
2018-11-26T13:47:51.594Z,1540
2018-11-26T13:48:53.453Z,1536
2018-11-26T13:49:53.548Z,1576
2018-11-26T13:50:54.786Z,1608
2018-11-26T13:51:55.306Z,1656
2018-11-26T13:52:56.865Z,1632
2018-11-26T13:53:57.663Z,1616
2018-11-26T13:54:59.735Z,1640
2018-11-26T13:55:59.846Z,1708
2018-11-26T13:57:00.641Z,1728
2018-11-26T13:58:01.444Z,1744
2018-11-26T13:59:01.970Z,1756
2018-11-26T14:00:03.125Z,1768
2018-11-26T14:01:03.662Z,1776
2018-11-26T14:02:05.180Z,1760
2018-11-26T14:03:06.760Z,1756
2018-11-26T14:04:07.374Z,1760
2018-11-26T14:05:08.777Z,1748
2018-11-26T14:06:09.314Z,1752
2018-11-26T14:07:09.880Z,1756
2018-11-26T14:08:11.856Z,1768
2018-11-26T14:09:11.830Z,1768
2018-11-26T14:10:14.137Z,1764
2018-11-26T14:11:15.036Z,1740